Aviation Digital Data Service (ADDS)

Output produced by METARs form (2231 UTC 30 March 2017)
found at http://www.aviationweather.gov/adds/metars/
 
VVDN 302200Z 20001KT 6000 FEW015 SCT060 24/23 Q1013 NOSIG
TAF VVDN 301700Z 3018/3118 18004KT 6000 FEW015 SCT060 
     BECMG 3020/3021 3000 BR 
     BECMG 3100/3102 6000 NSW 
     TEMPO 3108/3112 4000 TSRA SCT013 FEW015CB BKN050
       
VVNB 302200Z 09003KT 3400 BR FEW006 BKN040 23/23 Q1012 NOSIG
TAF VVNB 301700Z 3018/3118 12005KT 4000 BR SCT006 BKN040 
     TEMPO 3018/3022 2000 -RA BR SCT006 BKN030 
     TEMPO 3023/3102 3000 +TSRA BKN010 FEW027CB 
     BECMG 3103/3104 02015KT 6000 -RA SCT010 BKN040 
     TEMPO 3103/3107 02018G28KT 4000 RA BKN010 BKN040 
     BECMG 3108/3109 05010KT 9999 NSW
       
VVTS 302200Z VRB03KT 9999 FEW017 BKN050 25/25 Q1012 NOSIG
TAF VVTS 301700Z 3018/3124 09008KT 9999 SCT017 SCT040 
     BECMG 3020/3021 VRB03KT 3000 BR 
     BECMG 3100/3101 12006KT 9999 NSW 
     TEMPO 3109/3112 12015G30KT 3000 TSRA BKN015 FEW017CB BKN040